<?xml version="1.0" encoding="UTF-8" standalone="no" ?>
<gpx xmlns="http://www.topografix.com/GPX/1/1" xmlns:xsi="http://www.w3.org/2001/XMLSchema-instance" xsi:schemaLocation="http://www.topografix.com/GPX/1/1 http://www.topografix.com/GPX/1/1/gpx.xsd" version="1.1" creator="VisuGPX - https://www.visugpx.com">
  <metadata>
    <name>BasseGoulaine_GueCanal_11km</name>
    <desc><![CDATA[gnerando]]></desc>
  </metadata>
  <trk>
    <name><![CDATA[2025-06-23 13:45]]></name>
    <desc><![CDATA[<p>Heure de départ: 13:45 23 juin 2025<br/>Heure d'arrivée: 16:36 23 juin 2025<br/>Distance: 37,6 km (02:50)<br/>Temps déplacement: 02:32<br/>Vitesse moyenne: 13,23 km/h<br/>Vitesse moyenne mouv.: 14,85 km/h<br/>Vitesse Max.: 35,19 km/h<br/>Altitude minimale: 0 m<br/>Altitude maximale: 31 m<br/>Vitesse de montée: 204,8 m/h<br/>Vitesse de descente: -216,7 m/h<br/>Gain d'altitude: 266 m<br/>Perte d'altitude: -265 m<br/>Temps de montée: 01:17<br/>Temps de descente: 01:13<br/></p><hr align="center" width="480" style="height: 2px; width: 517px"/>]]></desc>
    <extensions>
      <line xmlns="http://www.topografix.com/GPX/gpx_style/0/2">
        <color>0000FF</color>
        <width>4</width>
      </line>
    </extensions>
    <trkseg>
      <trkpt lat="47.21735" lon="-1.46145">
        <ele>4.3</ele>
        <time>2025-06-23T12:31:30Z</time>
      </trkpt>
      <trkpt lat="47.21727" lon="-1.46136">
        <ele>5.01</ele>
        <time>2025-06-23T12:31:38Z</time>
      </trkpt>
      <trkpt lat="47.21707" lon="-1.46139">
        <ele>5</ele>
        <time>2025-06-23T12:31:46Z</time>
      </trkpt>
      <trkpt lat="47.21698" lon="-1.46169">
        <ele>6.4</ele>
        <time>2025-06-23T12:31:54Z</time>
      </trkpt>
      <trkpt lat="47.21689" lon="-1.46198">
        <ele>7</ele>
        <time>2025-06-23T12:32:22Z</time>
      </trkpt>
      <trkpt lat="47.21667" lon="-1.46192">
        <ele>7</ele>
        <time>2025-06-23T12:32:54Z</time>
      </trkpt>
      <trkpt lat="47.21681" lon="-1.46144">
        <ele>5.6</ele>
        <time>2025-06-23T12:33:02Z</time>
      </trkpt>
      <trkpt lat="47.21684" lon="-1.46093">
        <ele>5.05</ele>
        <time>2025-06-23T12:33:10Z</time>
      </trkpt>
      <trkpt lat="47.21684" lon="-1.46059">
        <ele>3.62</ele>
        <time>2025-06-23T12:33:14Z</time>
      </trkpt>
      <trkpt lat="47.21686" lon="-1.46031">
        <ele>3.18</ele>
        <time>2025-06-23T12:33:18Z</time>
      </trkpt>
      <trkpt lat="47.21686" lon="-1.46004">
        <ele>3.06</ele>
        <time>2025-06-23T12:33:22Z</time>
      </trkpt>
      <trkpt lat="47.21685" lon="-1.45974">
        <ele>3.02</ele>
        <time>2025-06-23T12:33:26Z</time>
      </trkpt>
      <trkpt lat="47.21683" lon="-1.45941">
        <ele>3</ele>
        <time>2025-06-23T12:33:30Z</time>
      </trkpt>
      <trkpt lat="47.21683" lon="-1.4591">
        <ele>5.1</ele>
        <time>2025-06-23T12:33:34Z</time>
      </trkpt>
      <trkpt lat="47.21681" lon="-1.45878">
        <ele>5.73</ele>
        <time>2025-06-23T12:33:38Z</time>
      </trkpt>
      <trkpt lat="47.21679" lon="-1.45848">
        <ele>5.92</ele>
        <time>2025-06-23T12:33:42Z</time>
      </trkpt>
      <trkpt lat="47.21666" lon="-1.45819">
        <ele>5.99</ele>
        <time>2025-06-23T12:33:50Z</time>
      </trkpt>
      <trkpt lat="47.21642" lon="-1.45787">
        <ele>6</ele>
        <time>2025-06-23T12:34:06Z</time>
      </trkpt>
      <trkpt lat="47.21611" lon="-1.45761">
        <ele>6</ele>
        <time>2025-06-23T12:34:14Z</time>
      </trkpt>
      <trkpt lat="47.21594" lon="-1.45748">
        <ele>4.6</ele>
        <time>2025-06-23T12:34:18Z</time>
      </trkpt>
      <trkpt lat="47.21559" lon="-1.45731">
        <ele>4.05</ele>
        <time>2025-06-23T12:34:26Z</time>
      </trkpt>
      <trkpt lat="47.21539" lon="-1.45727">
        <ele>4.02</ele>
        <time>2025-06-23T12:34:30Z</time>
      </trkpt>
      <trkpt lat="47.21506" lon="-1.45729">
        <ele>4</ele>
        <time>2025-06-23T12:34:38Z</time>
      </trkpt>
      <trkpt lat="47.21475" lon="-1.45739">
        <ele>4.91</ele>
        <time>2025-06-23T12:34:46Z</time>
      </trkpt>
      <trkpt lat="47.21458" lon="-1.45748">
        <ele>4.97</ele>
        <time>2025-06-23T12:34:50Z</time>
      </trkpt>
      <trkpt lat="47.21431" lon="-1.45754">
        <ele>8.64</ele>
        <time>2025-06-23T12:34:58Z</time>
      </trkpt>
      <trkpt lat="47.2141" lon="-1.45759">
        <ele>7.57</ele>
        <time>2025-06-23T12:35:06Z</time>
      </trkpt>
      <trkpt lat="47.21385" lon="-1.45759">
        <ele>7.05</ele>
        <time>2025-06-23T12:35:14Z</time>
      </trkpt>
      <trkpt lat="47.21355" lon="-1.45731">
        <ele>6.09</ele>
        <time>2025-06-23T12:35:22Z</time>
      </trkpt>
      <trkpt lat="47.21328" lon="-1.45706">
        <ele>4.61</ele>
        <time>2025-06-23T12:35:30Z</time>
      </trkpt>
      <trkpt lat="47.21295" lon="-1.45693">
        <ele>4.05</ele>
        <time>2025-06-23T12:35:38Z</time>
      </trkpt>
      <trkpt lat="47.21262" lon="-1.45703">
        <ele>4</ele>
        <time>2025-06-23T12:35:46Z</time>
      </trkpt>
      <trkpt lat="47.21236" lon="-1.45724">
        <ele>4.91</ele>
        <time>2025-06-23T12:35:54Z</time>
      </trkpt>
      <trkpt lat="47.21222" lon="-1.45749">
        <ele>4.99</ele>
        <time>2025-06-23T12:36:02Z</time>
      </trkpt>
      <trkpt lat="47.21096" lon="-1.45589">
        <ele>6.5</ele>
      </trkpt>
      <trkpt lat="47.20806" lon="-1.45291">
        <ele>5</ele>
      </trkpt>
      <trkpt lat="47.2095" lon="-1.45127">
        <ele>3.7</ele>
      </trkpt>
      <trkpt lat="47.20812" lon="-1.45124">
        <ele>4</ele>
      </trkpt>
      <trkpt lat="47.20655" lon="-1.4524">
        <ele>6.4</ele>
      </trkpt>
      <trkpt lat="47.2048" lon="-1.45543">
        <ele>13.3</ele>
      </trkpt>
      <trkpt lat="47.2054" lon="-1.45674">
        <ele>9.9</ele>
      </trkpt>
      <trkpt lat="47.20383" lon="-1.4595">
        <ele>13</ele>
      </trkpt>
      <trkpt lat="47.20301" lon="-1.46062">
        <ele>13.2</ele>
      </trkpt>
      <trkpt lat="47.20309" lon="-1.46159">
        <ele>14.8</ele>
      </trkpt>
      <trkpt lat="47.20476" lon="-1.46192">
        <ele>20</ele>
      </trkpt>
      <trkpt lat="47.20511" lon="-1.46305">
        <ele>22</ele>
      </trkpt>
      <trkpt lat="47.20649" lon="-1.46378">
        <ele>21</ele>
        <time>2025-06-23T12:46:14Z</time>
      </trkpt>
      <trkpt lat="47.20634" lon="-1.46394">
        <ele>21</ele>
        <time>2025-06-23T12:46:22Z</time>
      </trkpt>
      <trkpt lat="47.20652" lon="-1.46422">
        <ele>21</ele>
        <time>2025-06-23T12:46:34Z</time>
      </trkpt>
      <trkpt lat="47.20657" lon="-1.46449">
        <ele>21</ele>
        <time>2025-06-23T12:46:46Z</time>
      </trkpt>
      <trkpt lat="47.20651" lon="-1.46482">
        <ele>21</ele>
        <time>2025-06-23T12:46:54Z</time>
      </trkpt>
      <trkpt lat="47.20651" lon="-1.46518">
        <ele>21</ele>
        <time>2025-06-23T12:47:02Z</time>
      </trkpt>
      <trkpt lat="47.2063" lon="-1.46531">
        <ele>21</ele>
        <time>2025-06-23T12:47:10Z</time>
      </trkpt>
      <trkpt lat="47.206" lon="-1.46514">
        <ele>21</ele>
        <time>2025-06-23T12:47:18Z</time>
      </trkpt>
      <trkpt lat="47.20572" lon="-1.46486">
        <ele>21.7</ele>
        <time>2025-06-23T12:47:26Z</time>
      </trkpt>
      <trkpt lat="47.20558" lon="-1.4647">
        <ele>21.91</ele>
        <time>2025-06-23T12:47:30Z</time>
      </trkpt>
      <trkpt lat="47.20527" lon="-1.46443">
        <ele>21.99</ele>
        <time>2025-06-23T12:47:38Z</time>
      </trkpt>
      <trkpt lat="47.20512" lon="-1.46428">
        <ele>22</ele>
        <time>2025-06-23T12:47:42Z</time>
      </trkpt>
      <trkpt lat="47.20482" lon="-1.46408">
        <ele>20.18</ele>
        <time>2025-06-23T12:47:50Z</time>
      </trkpt>
      <trkpt lat="47.20465" lon="-1.46415">
        <ele>20.05</ele>
        <time>2025-06-23T12:47:54Z</time>
      </trkpt>
      <trkpt lat="47.20445" lon="-1.46424">
        <ele>20.02</ele>
        <time>2025-06-23T12:47:58Z</time>
      </trkpt>
      <trkpt lat="47.20426" lon="-1.46431">
        <ele>20</ele>
        <time>2025-06-23T12:48:02Z</time>
      </trkpt>
      <trkpt lat="47.20407" lon="-1.46438">
        <ele>20</ele>
        <time>2025-06-23T12:48:06Z</time>
      </trkpt>
      <trkpt lat="47.20388" lon="-1.46442">
        <ele>20</ele>
        <time>2025-06-23T12:48:10Z</time>
      </trkpt>
      <trkpt lat="47.20372" lon="-1.46452">
        <ele>20</ele>
        <time>2025-06-23T12:48:14Z</time>
      </trkpt>
      <trkpt lat="47.20359" lon="-1.46504">
        <ele>20</ele>
        <time>2025-06-23T12:48:22Z</time>
      </trkpt>
      <trkpt lat="47.20354" lon="-1.46532">
        <ele>20</ele>
        <time>2025-06-23T12:48:26Z</time>
      </trkpt>
      <trkpt lat="47.20349" lon="-1.4656">
        <ele>20</ele>
        <time>2025-06-23T12:48:30Z</time>
      </trkpt>
      <trkpt lat="47.20341" lon="-1.46609">
        <ele>20.91</ele>
        <time>2025-06-23T12:48:38Z</time>
      </trkpt>
      <trkpt lat="47.20335" lon="-1.46634">
        <ele>20.97</ele>
        <time>2025-06-23T12:48:42Z</time>
      </trkpt>
      <trkpt lat="47.2033" lon="-1.46679">
        <ele>21.7</ele>
        <time>2025-06-23T12:48:50Z</time>
      </trkpt>
      <trkpt lat="47.20328" lon="-1.46708">
        <ele>21.97</ele>
        <time>2025-06-23T12:48:58Z</time>
      </trkpt>
      <trkpt lat="47.20308" lon="-1.46714">
        <ele>22</ele>
        <time>2025-06-23T12:49:06Z</time>
      </trkpt>
      <trkpt lat="47.20278" lon="-1.46707">
        <ele>22</ele>
        <time>2025-06-23T12:49:14Z</time>
      </trkpt>
      <trkpt lat="47.20243" lon="-1.46702">
        <ele>21.3</ele>
        <time>2025-06-23T12:49:22Z</time>
      </trkpt>
      <trkpt lat="47.20224" lon="-1.46723">
        <ele>21.03</ele>
        <time>2025-06-23T12:49:30Z</time>
      </trkpt>
      <trkpt lat="47.20223" lon="-1.4677">
        <ele>22.4</ele>
        <time>2025-06-23T12:49:38Z</time>
      </trkpt>
      <trkpt lat="47.20223" lon="-1.46812">
        <ele>22.95</ele>
        <time>2025-06-23T12:49:46Z</time>
      </trkpt>
      <trkpt lat="47.20224" lon="-1.46854">
        <ele>22.09</ele>
        <time>2025-06-23T12:49:54Z</time>
      </trkpt>
      <trkpt lat="47.20249" lon="-1.46864">
        <ele>22.01</ele>
        <time>2025-06-23T12:50:02Z</time>
      </trkpt>
      <trkpt lat="47.20277" lon="-1.46863">
        <ele>21</ele>
        <time>2025-06-23T12:50:26Z</time>
      </trkpt>
      <trkpt lat="47.20304" lon="-1.46867">
        <ele>21</ele>
        <time>2025-06-23T12:50:34Z</time>
      </trkpt>
      <trkpt lat="47.20331" lon="-1.46865">
        <ele>21</ele>
        <time>2025-06-23T12:50:42Z</time>
      </trkpt>
      <trkpt lat="47.20359" lon="-1.46873">
        <ele>22.82</ele>
        <time>2025-06-23T12:50:50Z</time>
      </trkpt>
      <trkpt lat="47.20388" lon="-1.46879">
        <ele>22.98</ele>
        <time>2025-06-23T12:50:58Z</time>
      </trkpt>
      <trkpt lat="47.20418" lon="-1.46882">
        <ele>22.3</ele>
        <time>2025-06-23T12:51:06Z</time>
      </trkpt>
      <trkpt lat="47.20439" lon="-1.46884">
        <ele>22.03</ele>
        <time>2025-06-23T12:51:14Z</time>
      </trkpt>
      <trkpt lat="47.20414" lon="-1.4688">
        <ele>22.7</ele>
        <time>2025-06-23T12:51:38Z</time>
      </trkpt>
      <trkpt lat="47.2039" lon="-1.4688">
        <ele>22.97</ele>
        <time>2025-06-23T12:51:46Z</time>
      </trkpt>
      <trkpt lat="47.20363" lon="-1.46873">
        <ele>23</ele>
        <time>2025-06-23T12:51:58Z</time>
      </trkpt>
      <trkpt lat="47.20389" lon="-1.46881">
        <ele>23</ele>
        <time>2025-06-23T12:53:10Z</time>
      </trkpt>
      <trkpt lat="47.2041" lon="-1.46883">
        <ele>23</ele>
        <time>2025-06-23T12:53:18Z</time>
      </trkpt>
      <trkpt lat="47.20429" lon="-1.46884">
        <ele>22.09</ele>
        <time>2025-06-23T12:53:26Z</time>
      </trkpt>
      <trkpt lat="47.20444" lon="-1.46908">
        <ele>22</ele>
        <time>2025-06-23T12:53:38Z</time>
      </trkpt>
      <trkpt lat="47.20447" lon="-1.46942">
        <ele>22</ele>
        <time>2025-06-23T12:53:46Z</time>
      </trkpt>
      <trkpt lat="47.20446" lon="-1.46977">
        <ele>22</ele>
        <time>2025-06-23T12:53:54Z</time>
      </trkpt>
      <trkpt lat="47.20447" lon="-1.47008">
        <ele>21.3</ele>
        <time>2025-06-23T12:54:02Z</time>
      </trkpt>
      <trkpt lat="47.20447" lon="-1.47046">
        <ele>21.03</ele>
        <time>2025-06-23T12:54:10Z</time>
      </trkpt>
      <trkpt lat="47.20455" lon="-1.47075">
        <ele>21</ele>
        <time>2025-06-23T12:54:18Z</time>
      </trkpt>
      <trkpt lat="47.20474" lon="-1.47078">
        <ele>21</ele>
        <time>2025-06-23T12:54:26Z</time>
      </trkpt>
      <trkpt lat="47.20451" lon="-1.47083">
        <ele>21</ele>
        <time>2025-06-23T12:54:42Z</time>
      </trkpt>
      <trkpt lat="47.20447" lon="-1.47114">
        <ele>21</ele>
        <time>2025-06-23T12:54:50Z</time>
      </trkpt>
      <trkpt lat="47.20447" lon="-1.4715">
        <ele>21</ele>
        <time>2025-06-23T12:55:02Z</time>
      </trkpt>
      <trkpt lat="47.20466" lon="-1.47149">
        <ele>21</ele>
        <time>2025-06-23T12:55:10Z</time>
      </trkpt>
      <trkpt lat="47.20494" lon="-1.4714">
        <ele>21</ele>
        <time>2025-06-23T12:55:18Z</time>
      </trkpt>
      <trkpt lat="47.20515" lon="-1.47134">
        <ele>21</ele>
        <time>2025-06-23T12:55:26Z</time>
      </trkpt>
      <trkpt lat="47.20544" lon="-1.47125">
        <ele>21</ele>
        <time>2025-06-23T12:55:34Z</time>
      </trkpt>
      <trkpt lat="47.20573" lon="-1.47117">
        <ele>21</ele>
        <time>2025-06-23T12:55:42Z</time>
      </trkpt>
      <trkpt lat="47.20594" lon="-1.47112">
        <ele>22.82</ele>
        <time>2025-06-23T12:55:50Z</time>
      </trkpt>
      <trkpt lat="47.20589" lon="-1.47157">
        <ele>23</ele>
        <time>2025-06-23T12:56:02Z</time>
      </trkpt>
      <trkpt lat="47.20577" lon="-1.47194">
        <ele>21.18</ele>
        <time>2025-06-23T12:56:10Z</time>
      </trkpt>
      <trkpt lat="47.20568" lon="-1.47228">
        <ele>21.02</ele>
        <time>2025-06-23T12:56:18Z</time>
      </trkpt>
      <trkpt lat="47.20561" lon="-1.47269">
        <ele>20.3</ele>
        <time>2025-06-23T12:56:26Z</time>
      </trkpt>
      <trkpt lat="47.20543" lon="-1.4728">
        <ele>20.03</ele>
        <time>2025-06-23T12:56:34Z</time>
      </trkpt>
      <trkpt lat="47.20532" lon="-1.4731">
        <ele>20</ele>
        <time>2025-06-23T12:56:42Z</time>
      </trkpt>
      <trkpt lat="47.20526" lon="-1.47344">
        <ele>19.3</ele>
        <time>2025-06-23T12:56:50Z</time>
      </trkpt>
      <trkpt lat="47.20522" lon="-1.4738">
        <ele>19.03</ele>
        <time>2025-06-23T12:56:58Z</time>
      </trkpt>
      <trkpt lat="47.20512" lon="-1.47429">
        <ele>18.6</ele>
      </trkpt>
      <trkpt lat="47.2051" lon="-1.47426">
        <ele>18.6</ele>
        <extensions>
          <visugpx:TrkExtension xmlns:visugpx="https://www.visugpx.com/editgpx/">
            <visugpx:node>1</visugpx:node>
            </visugpx:TrkExtension>
        </extensions>
      </trkpt>
      <trkpt lat="47.20512" lon="-1.47429">
        <ele>18.6</ele>
      </trkpt>
      <trkpt lat="47.20555" lon="-1.47496">
        <ele>16.2</ele>
      </trkpt>
      <trkpt lat="47.20593" lon="-1.47583">
        <ele>15.3</ele>
      </trkpt>
      <trkpt lat="47.20602" lon="-1.47595">
        <ele>14.7</ele>
      </trkpt>
      <trkpt lat="47.20602" lon="-1.47606">
        <ele>14.7</ele>
        <extensions>
          <visugpx:TrkExtension xmlns:visugpx="https://www.visugpx.com/editgpx/">
            <visugpx:node>2</visugpx:node>
            </visugpx:TrkExtension>
        </extensions>
      </trkpt>
      <trkpt lat="47.20602" lon="-1.47595">
        <ele>14.7</ele>
      </trkpt>
      <trkpt lat="47.20607" lon="-1.47597">
        <ele>14.3</ele>
      </trkpt>
      <trkpt lat="47.20641" lon="-1.47587">
        <ele>14.9</ele>
      </trkpt>
      <trkpt lat="47.20653" lon="-1.47578">
        <ele>15.5</ele>
      </trkpt>
      <trkpt lat="47.20654" lon="-1.47575">
        <ele>15.5</ele>
        <extensions>
          <visugpx:TrkExtension xmlns:visugpx="https://www.visugpx.com/editgpx/">
            <visugpx:node>3</visugpx:node>
            </visugpx:TrkExtension>
        </extensions>
      </trkpt>
      <trkpt lat="47.20653" lon="-1.47578">
        <ele>15.5</ele>
      </trkpt>
      <trkpt lat="47.20678" lon="-1.47591">
        <ele>16.5</ele>
      </trkpt>
      <trkpt lat="47.20687" lon="-1.47642">
        <ele>15.5</ele>
      </trkpt>
      <trkpt lat="47.20704" lon="-1.47641">
        <ele>16.7</ele>
      </trkpt>
      <trkpt lat="47.20739" lon="-1.47639">
        <ele>18.6</ele>
      </trkpt>
      <trkpt lat="47.20742" lon="-1.47658">
        <ele>18.7</ele>
      </trkpt>
      <trkpt lat="47.208" lon="-1.47662">
        <ele>19.2</ele>
      </trkpt>
      <trkpt lat="47.20808" lon="-1.47651">
        <ele>19.6</ele>
      </trkpt>
      <trkpt lat="47.20813" lon="-1.47648">
        <ele>19.8</ele>
        <extensions>
          <visugpx:TrkExtension xmlns:visugpx="https://www.visugpx.com/editgpx/">
            <visugpx:node>4</visugpx:node>
            </visugpx:TrkExtension>
        </extensions>
      </trkpt>
      <trkpt lat="47.20815" lon="-1.47646">
        <ele>19.8</ele>
      </trkpt>
      <trkpt lat="47.20817" lon="-1.47629">
        <ele>20</ele>
      </trkpt>
      <trkpt lat="47.20844" lon="-1.4755">
        <ele>21.5</ele>
      </trkpt>
      <trkpt lat="47.20855" lon="-1.47515">
        <ele>22.4</ele>
      </trkpt>
      <trkpt lat="47.21174" lon="-1.47516">
        <ele>19.2</ele>
      </trkpt>
      <trkpt lat="47.21187" lon="-1.47515">
        <ele>18.7</ele>
      </trkpt>
      <trkpt lat="47.21196" lon="-1.47511">
        <ele>18.5</ele>
      </trkpt>
      <trkpt lat="47.21204" lon="-1.47505">
        <ele>18.5</ele>
      </trkpt>
      <trkpt lat="47.2121" lon="-1.47499">
        <ele>18.4</ele>
        <extensions>
          <visugpx:TrkExtension xmlns:visugpx="https://www.visugpx.com/editgpx/">
            <visugpx:node>5</visugpx:node>
            </visugpx:TrkExtension>
        </extensions>
      </trkpt>
      <trkpt lat="47.21216" lon="-1.47506">
        <ele>18</ele>
      </trkpt>
      <trkpt lat="47.21275" lon="-1.47553">
        <ele>14.2</ele>
      </trkpt>
      <trkpt lat="47.21292" lon="-1.47575">
        <ele>13.1</ele>
      </trkpt>
      <trkpt lat="47.21298" lon="-1.47586">
        <ele>12.5</ele>
      </trkpt>
      <trkpt lat="47.21299" lon="-1.47594">
        <ele>12.4</ele>
      </trkpt>
      <trkpt lat="47.21309" lon="-1.47594">
        <ele>11.8</ele>
      </trkpt>
      <trkpt lat="47.21314" lon="-1.47597">
        <ele>11.5</ele>
      </trkpt>
      <trkpt lat="47.21346" lon="-1.47633">
        <ele>9.5</ele>
      </trkpt>
      <trkpt lat="47.21352" lon="-1.47634">
        <ele>8.9</ele>
      </trkpt>
      <trkpt lat="47.2136" lon="-1.47632">
        <ele>8.1</ele>
      </trkpt>
      <trkpt lat="47.21368" lon="-1.47648">
        <ele>7.8</ele>
      </trkpt>
      <trkpt lat="47.21371" lon="-1.47647">
        <ele>7.6</ele>
      </trkpt>
      <trkpt lat="47.2138" lon="-1.47658">
        <ele>7.3</ele>
      </trkpt>
      <trkpt lat="47.21409" lon="-1.47659">
        <ele>5.7</ele>
      </trkpt>
      <trkpt lat="47.21411" lon="-1.47662">
        <ele>5.5</ele>
      </trkpt>
      <trkpt lat="47.21415" lon="-1.47665">
        <ele>5.2</ele>
      </trkpt>
      <trkpt lat="47.2142" lon="-1.4769">
        <ele>5</ele>
      </trkpt>
      <trkpt lat="47.21432" lon="-1.4772">
        <ele>5.4</ele>
      </trkpt>
      <trkpt lat="47.2144" lon="-1.47732">
        <ele>5.5</ele>
      </trkpt>
      <trkpt lat="47.21447" lon="-1.47739">
        <ele>5.5</ele>
      </trkpt>
      <trkpt lat="47.21462" lon="-1.47742">
        <ele>4.8</ele>
      </trkpt>
      <trkpt lat="47.21461" lon="-1.47747">
        <ele>4.8</ele>
        <extensions>
          <visugpx:TrkExtension xmlns:visugpx="https://www.visugpx.com/editgpx/">
            <visugpx:node>6</visugpx:node>
            </visugpx:TrkExtension>
        </extensions>
      </trkpt>
      <trkpt lat="47.21462" lon="-1.47742">
        <ele>4.8</ele>
      </trkpt>
      <trkpt lat="47.21467" lon="-1.47728">
        <ele>4.9</ele>
      </trkpt>
      <trkpt lat="47.21473" lon="-1.47717">
        <ele>5</ele>
      </trkpt>
      <trkpt lat="47.21494" lon="-1.47692">
        <ele>4.3</ele>
      </trkpt>
      <trkpt lat="47.21506" lon="-1.47665">
        <ele>4.8</ele>
      </trkpt>
      <trkpt lat="47.21527" lon="-1.47611">
        <ele>5</ele>
      </trkpt>
      <trkpt lat="47.21535" lon="-1.47591">
        <ele>4.7</ele>
      </trkpt>
      <trkpt lat="47.21537" lon="-1.47582">
        <ele>4.7</ele>
      </trkpt>
      <trkpt lat="47.21535" lon="-1.4755">
        <ele>4.8</ele>
      </trkpt>
      <trkpt lat="47.21544" lon="-1.47519">
        <ele>4.4</ele>
      </trkpt>
      <trkpt lat="47.21551" lon="-1.47525">
        <ele>3.6</ele>
      </trkpt>
      <trkpt lat="47.21559" lon="-1.47528">
        <ele>3.1</ele>
      </trkpt>
      <trkpt lat="47.21568" lon="-1.4753">
        <ele>3.5</ele>
      </trkpt>
      <trkpt lat="47.21571" lon="-1.47525">
        <ele>3.6</ele>
      </trkpt>
      <trkpt lat="47.21571" lon="-1.47524">
        <ele>3.6</ele>
        <extensions>
          <visugpx:TrkExtension xmlns:visugpx="https://www.visugpx.com/editgpx/">
            <visugpx:node>7</visugpx:node>
            </visugpx:TrkExtension>
        </extensions>
      </trkpt>
      <trkpt lat="47.21575" lon="-1.4751">
        <ele>3.9</ele>
      </trkpt>
      <trkpt lat="47.21591" lon="-1.475">
        <ele>3.7</ele>
      </trkpt>
      <trkpt lat="47.21599" lon="-1.47485">
        <ele>3.7</ele>
      </trkpt>
      <trkpt lat="47.21615" lon="-1.47446">
        <ele>4</ele>
      </trkpt>
      <trkpt lat="47.21627" lon="-1.47445">
        <ele>4</ele>
      </trkpt>
      <trkpt lat="47.2167" lon="-1.47468">
        <ele>3.9</ele>
      </trkpt>
      <trkpt lat="47.21712" lon="-1.47471">
        <ele>3.6</ele>
      </trkpt>
      <trkpt lat="47.2174" lon="-1.47481">
        <ele>3.9</ele>
      </trkpt>
      <trkpt lat="47.21745" lon="-1.47481">
        <ele>3.9</ele>
      </trkpt>
      <trkpt lat="47.21753" lon="-1.47473">
        <ele>4</ele>
      </trkpt>
      <trkpt lat="47.21767" lon="-1.4745">
        <ele>4</ele>
      </trkpt>
      <trkpt lat="47.21775" lon="-1.47446">
        <ele>4</ele>
      </trkpt>
      <trkpt lat="47.21779" lon="-1.47447">
        <ele>4</ele>
      </trkpt>
      <trkpt lat="47.21797" lon="-1.47454">
        <ele>4</ele>
        <extensions>
          <visugpx:TrkExtension xmlns:visugpx="https://www.visugpx.com/editgpx/">
            <visugpx:node>8</visugpx:node>
            </visugpx:TrkExtension>
        </extensions>
      </trkpt>
      <trkpt lat="47.21798" lon="-1.47454">
        <ele>4</ele>
      </trkpt>
      <trkpt lat="47.21799" lon="-1.47449">
        <ele>4</ele>
      </trkpt>
      <trkpt lat="47.21803" lon="-1.47415">
        <ele>4.9</ele>
      </trkpt>
      <trkpt lat="47.21812" lon="-1.47376">
        <ele>3.3</ele>
      </trkpt>
      <trkpt lat="47.21821" lon="-1.47324">
        <ele>3.6</ele>
      </trkpt>
      <trkpt lat="47.21827" lon="-1.47269">
        <ele>4</ele>
      </trkpt>
      <trkpt lat="47.21838" lon="-1.47216">
        <ele>3.8</ele>
      </trkpt>
      <trkpt lat="47.21846" lon="-1.47146">
        <ele>3.1</ele>
      </trkpt>
      <trkpt lat="47.21861" lon="-1.47061">
        <ele>4</ele>
      </trkpt>
      <trkpt lat="47.22003" lon="-1.47453">
        <ele>4.4</ele>
      </trkpt>
      <trkpt lat="47.22184" lon="-1.4726">
        <ele>4.2</ele>
      </trkpt>
      <trkpt lat="47.22487" lon="-1.46655">
        <ele>4.3</ele>
      </trkpt>
      <trkpt lat="47.2233" lon="-1.46462">
        <ele>3.9</ele>
      </trkpt>
      <trkpt lat="47.21984" lon="-1.46273">
        <ele>3</ele>
        <extensions>
          <visugpx:TrkExtension xmlns:visugpx="https://www.visugpx.com/editgpx/">
            <visugpx:node>9</visugpx:node>
            </visugpx:TrkExtension>
        </extensions>
      </trkpt>
      <trkpt lat="47.21985" lon="-1.46268">
        <ele>3.3</ele>
      </trkpt>
      <trkpt lat="47.22008" lon="-1.46114">
        <ele>2.7</ele>
        <extensions>
          <visugpx:TrkExtension xmlns:visugpx="https://www.visugpx.com/editgpx/">
            <visugpx:node>10</visugpx:node>
            </visugpx:TrkExtension>
        </extensions>
      </trkpt>
      <trkpt lat="47.22018" lon="-1.46031">
        <ele>3.6</ele>
      </trkpt>
      <trkpt lat="47.22036" lon="-1.45896">
        <ele>3.2</ele>
        <extensions>
          <visugpx:TrkExtension xmlns:visugpx="https://www.visugpx.com/editgpx/">
            <visugpx:node>11</visugpx:node>
            </visugpx:TrkExtension>
        </extensions>
      </trkpt>
      <trkpt lat="47.22061" lon="-1.45695">
        <ele>3.6</ele>
      </trkpt>
      <trkpt lat="47.22061" lon="-1.45693">
        <ele>3.6</ele>
        <extensions>
          <visugpx:TrkExtension xmlns:visugpx="https://www.visugpx.com/editgpx/">
            <visugpx:node>12</visugpx:node>
            </visugpx:TrkExtension>
        </extensions>
      </trkpt>
      <trkpt lat="47.22061" lon="-1.45689">
        <ele>3.5</ele>
      </trkpt>
      <trkpt lat="47.22057" lon="-1.45682">
        <ele>3.1</ele>
      </trkpt>
      <trkpt lat="47.22063" lon="-1.45636">
        <ele>2.6</ele>
        <extensions>
          <visugpx:TrkExtension xmlns:visugpx="https://www.visugpx.com/editgpx/">
            <visugpx:node>13</visugpx:node>
            </visugpx:TrkExtension>
        </extensions>
      </trkpt>
      <trkpt lat="47.22063" lon="-1.45636">
        <ele>2.6</ele>
      </trkpt>
      <trkpt lat="47.22073" lon="-1.45635">
        <ele>3.3</ele>
      </trkpt>
      <trkpt lat="47.22078" lon="-1.45629">
        <ele>3.7</ele>
        <extensions>
          <visugpx:TrkExtension xmlns:visugpx="https://www.visugpx.com/editgpx/">
            <visugpx:node>14</visugpx:node>
            </visugpx:TrkExtension>
        </extensions>
      </trkpt>
      <trkpt lat="47.22079" lon="-1.45628">
        <ele>3.7</ele>
      </trkpt>
      <trkpt lat="47.2208" lon="-1.45622">
        <ele>3.8</ele>
      </trkpt>
      <trkpt lat="47.22083" lon="-1.45607">
        <ele>4.1</ele>
      </trkpt>
      <trkpt lat="47.22083" lon="-1.45596">
        <ele>4.5</ele>
        <extensions>
          <visugpx:TrkExtension xmlns:visugpx="https://www.visugpx.com/editgpx/">
            <visugpx:node>15</visugpx:node>
            </visugpx:TrkExtension>
        </extensions>
      </trkpt>
      <trkpt lat="47.22083" lon="-1.45566">
        <ele>4.4</ele>
      </trkpt>
      <trkpt lat="47.22077" lon="-1.45561">
        <ele>4.3</ele>
      </trkpt>
      <trkpt lat="47.22078" lon="-1.45557">
        <ele>4.2</ele>
        <extensions>
          <visugpx:TrkExtension xmlns:visugpx="https://www.visugpx.com/editgpx/">
            <visugpx:node>16</visugpx:node>
            </visugpx:TrkExtension>
        </extensions>
      </trkpt>
      <trkpt lat="47.22077" lon="-1.45561">
        <ele>4.3</ele>
      </trkpt>
      <trkpt lat="47.22075" lon="-1.45558">
        <ele>4.3</ele>
      </trkpt>
      <trkpt lat="47.22059" lon="-1.45542">
        <ele>4.9</ele>
      </trkpt>
      <trkpt lat="47.22053" lon="-1.45536">
        <ele>5</ele>
      </trkpt>
      <trkpt lat="47.2205" lon="-1.45533">
        <ele>5</ele>
        <extensions>
          <visugpx:TrkExtension xmlns:visugpx="https://www.visugpx.com/editgpx/">
            <visugpx:node>17</visugpx:node>
            </visugpx:TrkExtension>
        </extensions>
      </trkpt>
      <trkpt lat="47.22053" lon="-1.45536">
        <ele>5</ele>
      </trkpt>
      <trkpt lat="47.22063" lon="-1.45487">
        <ele>4.4</ele>
      </trkpt>
      <trkpt lat="47.22066" lon="-1.45459">
        <ele>3.8</ele>
      </trkpt>
      <trkpt lat="47.22069" lon="-1.45422">
        <ele>3.9</ele>
        <extensions>
          <visugpx:TrkExtension xmlns:visugpx="https://www.visugpx.com/editgpx/">
            <visugpx:node>18</visugpx:node>
            </visugpx:TrkExtension>
        </extensions>
      </trkpt>
      <trkpt lat="47.2207" lon="-1.45407">
        <ele>4</ele>
      </trkpt>
      <trkpt lat="47.22069" lon="-1.45346">
        <ele>3.6</ele>
        <extensions>
          <visugpx:TrkExtension xmlns:visugpx="https://www.visugpx.com/editgpx/">
            <visugpx:node>19</visugpx:node>
            </visugpx:TrkExtension>
        </extensions>
      </trkpt>
      <trkpt lat="47.22069" lon="-1.45344">
        <ele>3.7</ele>
      </trkpt>
      <trkpt lat="47.22074" lon="-1.45325">
        <ele>3.2</ele>
      </trkpt>
      <trkpt lat="47.22073" lon="-1.45299">
        <ele>3.4</ele>
      </trkpt>
      <trkpt lat="47.2207" lon="-1.45285">
        <ele>4.2</ele>
      </trkpt>
      <trkpt lat="47.22067" lon="-1.4528">
        <ele>4.5</ele>
        <extensions>
          <visugpx:TrkExtension xmlns:visugpx="https://www.visugpx.com/editgpx/">
            <visugpx:node>20</visugpx:node>
            </visugpx:TrkExtension>
        </extensions>
      </trkpt>
      <trkpt lat="47.22064" lon="-1.45273">
        <ele>4.6</ele>
      </trkpt>
      <trkpt lat="47.22045" lon="-1.45259">
        <ele>4.7</ele>
      </trkpt>
      <trkpt lat="47.22038" lon="-1.4525">
        <ele>4.6</ele>
      </trkpt>
      <trkpt lat="47.22006" lon="-1.45175">
        <ele>4.8</ele>
      </trkpt>
      <trkpt lat="47.22001" lon="-1.45175">
        <ele>5</ele>
      </trkpt>
      <trkpt lat="47.22001" lon="-1.45171">
        <ele>5</ele>
      </trkpt>
      <trkpt lat="47.21994" lon="-1.45171">
        <ele>4.8</ele>
      </trkpt>
      <trkpt lat="47.21984" lon="-1.45172">
        <ele>4.4</ele>
      </trkpt>
      <trkpt lat="47.21982" lon="-1.45174">
        <ele>4.4</ele>
        <extensions>
          <visugpx:TrkExtension xmlns:visugpx="https://www.visugpx.com/editgpx/">
            <visugpx:node>21</visugpx:node>
            </visugpx:TrkExtension>
        </extensions>
      </trkpt>
      <trkpt lat="47.21982" lon="-1.45175">
        <ele>4.4</ele>
      </trkpt>
      <trkpt lat="47.21972" lon="-1.45243">
        <ele>4.7</ele>
      </trkpt>
      <trkpt lat="47.21967" lon="-1.45263">
        <ele>5.2</ele>
      </trkpt>
      <trkpt lat="47.21959" lon="-1.45272">
        <ele>4.9</ele>
      </trkpt>
      <trkpt lat="47.21944" lon="-1.45282">
        <ele>4.6</ele>
      </trkpt>
      <trkpt lat="47.21942" lon="-1.45286">
        <ele>5.2</ele>
      </trkpt>
      <trkpt lat="47.21942" lon="-1.45289">
        <ele>5.6</ele>
        <extensions>
          <visugpx:TrkExtension xmlns:visugpx="https://www.visugpx.com/editgpx/">
            <visugpx:node>22</visugpx:node>
            </visugpx:TrkExtension>
        </extensions>
      </trkpt>
      <trkpt lat="47.21939" lon="-1.453">
        <ele>7</ele>
      </trkpt>
      <trkpt lat="47.21935" lon="-1.45324">
        <ele>7.4</ele>
      </trkpt>
      <trkpt lat="47.21931" lon="-1.45348">
        <ele>7.3</ele>
      </trkpt>
      <trkpt lat="47.21934" lon="-1.4536">
        <ele>7.8</ele>
      </trkpt>
      <trkpt lat="47.21939" lon="-1.45382">
        <ele>7.6</ele>
      </trkpt>
      <trkpt lat="47.21942" lon="-1.45399">
        <ele>7.2</ele>
      </trkpt>
      <trkpt lat="47.2194" lon="-1.45409">
        <ele>7.3</ele>
        <extensions>
          <visugpx:TrkExtension xmlns:visugpx="https://www.visugpx.com/editgpx/">
            <visugpx:node>23</visugpx:node>
            </visugpx:TrkExtension>
        </extensions>
      </trkpt>
      <trkpt lat="47.2194" lon="-1.45411">
        <ele>7.3</ele>
      </trkpt>
      <trkpt lat="47.21936" lon="-1.45416">
        <ele>7.6</ele>
      </trkpt>
      <trkpt lat="47.21927" lon="-1.45418">
        <ele>8.2</ele>
      </trkpt>
      <trkpt lat="47.21921" lon="-1.45424">
        <ele>8.5</ele>
      </trkpt>
      <trkpt lat="47.21909" lon="-1.45441">
        <ele>8.6</ele>
      </trkpt>
      <trkpt lat="47.21894" lon="-1.4547">
        <ele>9.3</ele>
      </trkpt>
      <trkpt lat="47.21868" lon="-1.45521">
        <ele>8.7</ele>
      </trkpt>
      <trkpt lat="47.21764" lon="-1.45718">
        <ele>5.6</ele>
      </trkpt>
      <trkpt lat="47.21761" lon="-1.45726">
        <ele>5.6</ele>
        <extensions>
          <visugpx:TrkExtension xmlns:visugpx="https://www.visugpx.com/editgpx/">
            <visugpx:node>24</visugpx:node>
            </visugpx:TrkExtension>
        </extensions>
      </trkpt>
      <trkpt lat="47.21759" lon="-1.45747">
        <ele>5.4</ele>
      </trkpt>
      <trkpt lat="47.21751" lon="-1.45863">
        <ele>4</ele>
      </trkpt>
      <trkpt lat="47.21739" lon="-1.45997">
        <ele>4.4</ele>
      </trkpt>
      <trkpt lat="47.21729" lon="-1.46055">
        <ele>4.8</ele>
      </trkpt>
      <trkpt lat="47.21709" lon="-1.46122">
        <ele>4.7</ele>
      </trkpt>
      <trkpt lat="47.21711" lon="-1.46123">
        <ele>4.7</ele>
        <extensions>
          <visugpx:TrkExtension xmlns:visugpx="https://www.visugpx.com/editgpx/">
            <visugpx:node>25</visugpx:node>
            </visugpx:TrkExtension>
        </extensions>
      </trkpt>
      <trkpt lat="47.21738" lon="-1.46139">
        <ele>3.9</ele>
      </trkpt>
      <trkpt lat="47.21737" lon="-1.46147">
        <ele>4.2</ele>
      </trkpt>
      <trkpt lat="47.21735" lon="-1.46168">
        <ele>5</ele>
      </trkpt>
      <trkpt lat="47.2171" lon="-1.46164">
        <ele>5</ele>
        <extensions>
          <visugpx:TrkExtension xmlns:visugpx="https://www.visugpx.com/editgpx/">
            <visugpx:node>26</visugpx:node>
            </visugpx:TrkExtension>
        </extensions>
      </trkpt>
    </trkseg>
  </trk>
</gpx>